Time;durP1;ratioP1;P1;durP2;ratioP2;P2;SDS_P1;SDS_P2;PMS_P1;PMS_P2;Temp;Humidity;BMP_temperature;BMP_pressure;BME280_temperature;BME280_humidity;BME280_pressure;Samples;Min_cycle;Max_cycle;Signal;HPM_P1;HPM_P2
2023/12/28 00:01:20;;;;;;;9.40;6.97;;;;;;;;;;5053644;28;20209;-71
2023/12/28 00:03:47;;;;;;;13.80;7.18;;;;;;;;;;5057521;28;20311;-71
2023/12/28 00:06:14;;;;;;;11.85;7.80;;;;;;;;;;5058667;28;20231;-70
2023/12/28 00:08:41;;;;;;;13.70;7.10;;;;;;;;;;5055174;28;20297;-71
2023/12/28 00:11:08;;;;;;;8.98;7.55;;;;;;;;;;5059459;28;20216;-70
2023/12/28 00:13:34;;;;;;;10.85;7.93;;;;;;;;;;5061906;28;20216;-70
2023/12/28 00:16:01;;;;;;;8.82;6.88;;;;;;;;;;5058298;28;20217;-70
2023/12/28 00:18:27;;;;;;;10.80;7.00;;;;;;;;;;5064412;28;20278;-70
2023/12/28 00:20:53;;;;;;;8.63;7.05;;;;;;;;;;5060358;28;20214;-70
2023/12/28 00:23:21;;;;;;;9.82;7.32;;;;;;;;;;5060103;28;20265;-70
2023/12/28 00:25:47;;;;;;;10.70;7.38;;;;;;;;;;5059823;28;20224;-70
2023/12/28 00:28:14;;;;;;;10.90;7.15;;;;;;;;;;5060872;28;20674;-70
2023/12/28 00:30:40;;;;;;;13.02;7.55;;;;;;;;;;5053425;28;20237;-71
2023/12/28 00:33:06;;;;;;;10.32;6.85;;;;;;;;;;5061758;28;20212;-72
2023/12/28 00:35:32;;;;;;;11.02;6.95;;;;;;;;;;5059454;28;20232;-71
2023/12/28 00:37:58;;;;;;;10.38;7.75;;;;;;;;;;5057009;28;20212;-71
2023/12/28 00:40:28;;;;;;;8.90;6.75;;;;;;;;;;5053330;28;20213;-71
2023/12/28 00:42:54;;;;;;;11.52;7.95;;;;;;;;;;5060825;28;20304;-71
2023/12/28 00:45:20;;;;;;;12.40;8.00;;;;;;;;;;5066595;28;20220;-71
2023/12/28 00:47:46;;;;;;;10.82;8.27;;;;;;;;;;5063576;28;20696;-71
2023/12/28 00:50:14;;;;;;;11.38;7.30;;;;;;;;;;5060753;28;21084;-71
2023/12/28 00:52:41;;;;;;;12.07;8.07;;;;;;;;;;5061195;28;20253;-72
2023/12/28 00:55:07;;;;;;;12.02;7.65;;;;;;;;;;5060475;28;20645;-72
2023/12/28 00:57:35;;;;;;;11.95;8.15;;;;;;;;;;5052464;28;20215;-72
2023/12/28 01:00:02;;;;;;;9.13;7.25;;;;;;;;;;5062615;28;20227;-71
2023/12/28 01:02:29;;;;;;;14.25;7.32;;;;;;;;;;5060218;28;20669;-71
2023/12/28 01:04:55;;;;;;;10.95;7.50;;;;;;;;;;5058730;28;20211;-71
2023/12/28 01:07:21;;;;;;;14.48;8.02;;;;;;;;;;5061646;28;20217;-71
2023/12/28 01:09:47;;;;;;;18.77;8.13;;;;;;;;;;5063391;28;20216;-71
2023/12/28 01:12:14;;;;;;;10.52;8.07;;;;;;;;;;5058761;28;20208;-71
2023/12/28 01:14:41;;;;;;;13.65;7.82;;;;;;;;;;5055445;28;20216;-71
2023/12/28 01:17:08;;;;;;;9.32;7.68;;;;;;;;;;5059282;28;20287;-71
2023/12/28 01:19:34;;;;;;;14.93;7.80;;;;;;;;;;5061164;28;20915;-71
2023/12/28 01:22:00;;;;;;;10.70;7.28;;;;;;;;;;5059472;28;20208;-71
2023/12/28 01:24:26;;;;;;;14.70;8.85;;;;;;;;;;5064445;28;20273;-72
2023/12/28 01:26:53;;;;;;;9.50;7.20;;;;;;;;;;5060058;28;20223;-71
2023/12/28 01:29:19;;;;;;;9.30;7.28;;;;;;;;;;5059735;28;20212;-71
2023/12/28 01:31:46;;;;;;;12.93;7.55;;;;;;;;;;5062933;28;20208;-71
2023/12/28 01:34:13;;;;;;;9.43;7.03;;;;;;;;;;5060563;28;20205;-71
2023/12/28 01:36:41;;;;;;;9.43;7.40;;;;;;;;;;5059599;28;20732;-71
2023/12/28 01:39:07;;;;;;;10.50;6.97;;;;;;;;;;5058195;28;20217;-71
2023/12/28 01:41:34;;;;;;;11.60;7.57;;;;;;;;;;5053591;28;20209;-71
2023/12/28 01:44:00;;;;;;;9.90;6.80;;;;;;;;;;5050528;28;20261;-71
2023/12/28 01:46:26;;;;;;;10.70;7.07;;;;;;;;;;5056491;28;20270;-71
2023/12/28 01:48:54;;;;;;;8.77;7.05;;;;;;;;;;5059615;28;20782;-71
2023/12/28 01:51:21;;;;;;;8.40;6.75;;;;;;;;;;5058258;28;20197;-71
2023/12/28 01:53:48;;;;;;;12.93;6.88;;;;;;;;;;5063053;28;20630;-71
2023/12/28 01:56:15;;;;;;;10.68;6.97;;;;;;;;;;5059674;28;20220;-71
2023/12/28 01:58:43;;;;;;;9.82;7.28;;;;;;;;;;5059622;28;20279;-71
2023/12/28 02:01:10;;;;;;;7.20;6.40;;;;;;;;;;5062942;28;20266;-71
2023/12/28 02:03:37;;;;;;;9.80;6.78;;;;;;;;;;5063225;28;20204;-71
2023/12/28 02:06:05;;;;;;;8.70;7.45;;;;;;;;;;5059972;28;20308;-71
2023/12/28 02:08:31;;;;;;;9.18;6.60;;;;;;;;;;5066547;28;20573;-71
2023/12/28 02:10:58;;;;;;;8.05;6.07;;;;;;;;;;5064136;28;20730;-71
2023/12/28 02:13:24;;;;;;;10.30;5.97;;;;;;;;;;5064414;28;20668;-71
2023/12/28 02:15:52;;;;;;;9.35;6.07;;;;;;;;;;5062972;28;20285;-71
2023/12/28 02:18:22;;;;;;;7.32;6.05;;;;;;;;;;5060778;28;20735;-71
2023/12/28 02:20:49;;;;;;;7.00;5.90;;;;;;;;;;5061445;28;20224;-71
2023/12/28 02:23:16;;;;;;;8.98;6.00;;;;;;;;;;5064379;28;20193;-71
2023/12/28 02:25:44;;;;;;;8.32;6.53;;;;;;;;;;5063926;28;20221;-71
2023/12/28 02:28:10;;;;;;;10.88;5.85;;;;;;;;;;5064138;28;20200;-71
2023/12/28 02:30:37;;;;;;;7.70;5.97;;;;;;;;;;5063837;28;20672;-71
2023/12/28 02:33:07;;;;;;;9.18;6.63;;;;;;;;;;5061189;28;20598;-71
2023/12/28 02:35:36;;;;;;;12.18;6.70;;;;;;;;;;5060406;28;20224;-71
2023/12/28 02:38:03;;;;;;;11.73;6.47;;;;;;;;;;5062865;28;20231;-71
2023/12/28 02:40:31;;;;;;;11.18;7.07;;;;;;;;;;5063766;28;20223;-71
2023/12/28 02:42:59;;;;;;;11.63;7.03;;;;;;;;;;5061908;28;20212;-71
2023/12/28 02:45:25;;;;;;;6.88;6.10;;;;;;;;;;5065791;28;20228;-70
2023/12/28 02:47:51;;;;;;;10.82;6.60;;;;;;;;;;5062958;28;20212;-70
2023/12/28 02:50:18;;;;;;;8.60;5.90;;;;;;;;;;5060169;28;20194;-70
2023/12/28 02:52:44;;;;;;;9.18;6.65;;;;;;;;;;5060218;28;20570;-70
2023/12/28 02:55:10;;;;;;;10.63;6.82;;;;;;;;;;5064248;28;20216;-70
2023/12/28 02:57:38;;;;;;;8.40;6.35;;;;;;;;;;5064404;28;20626;-70
2023/12/28 03:00:08;;;;;;;7.18;5.82;;;;;;;;;;5060783;28;20273;-70
2023/12/28 03:02:34;;;;;;;8.05;5.68;;;;;;;;;;5060172;28;20216;-70
2023/12/28 03:05:01;;;;;;;9.05;6.47;;;;;;;;;;5061627;28;20266;-70
2023/12/28 03:07:27;;;;;;;8.63;6.13;;;;;;;;;;5063643;28;20204;-70
2023/12/28 03:09:53;;;;;;;9.90;7.00;;;;;;;;;;5062366;28;20214;-70
2023/12/28 03:12:19;;;;;;;9.18;6.78;;;;;;;;;;5059894;28;20204;-70
2023/12/28 03:14:46;;;;;;;10.02;6.40;;;;;;;;;;5059815;28;20205;-70
2023/12/28 03:17:13;;;;;;;9.25;6.72;;;;;;;;;;5063351;28;20270;-70
2023/12/28 03:19:40;;;;;;;7.57;6.63;;;;;;;;;;5063238;28;20327;-70
2023/12/28 03:22:06;;;;;;;8.82;6.93;;;;;;;;;;5061165;28;20203;-70
2023/12/28 03:24:33;;;;;;;9.93;7.40;;;;;;;;;;5059620;28;20677;-70
2023/12/28 03:26:59;;;;;;;10.18;7.20;;;;;;;;;;5061385;28;20220;-70
2023/12/28 03:29:25;;;;;;;8.88;6.55;;;;;;;;;;5063361;28;20250;-70
2023/12/28 03:31:51;;;;;;;9.32;6.57;;;;;;;;;;5062675;28;20671;-70
2023/12/28 03:34:19;;;;;;;12.38;7.10;;;;;;;;;;5059463;28;20625;-70
2023/12/28 03:36:45;;;;;;;8.80;6.88;;;;;;;;;;5059623;28;20221;-70
2023/12/28 03:39:12;;;;;;;9.52;6.32;;;;;;;;;;5062245;28;20217;-70
2023/12/28 03:41:38;;;;;;;9.30;6.63;;;;;;;;;;5062872;28;20258;-70
2023/12/28 03:44:04;;;;;;;10.48;6.82;;;;;;;;;;5061260;28;20204;-70
2023/12/28 03:46:32;;;;;;;9.30;6.07;;;;;;;;;;5069261;28;20739;-70
2023/12/28 03:48:58;;;;;;;7.20;6.13;;;;;;;;;;5066219;28;20250;-70
2023/12/28 03:51:25;;;;;;;9.82;6.70;;;;;;;;;;5063702;28;20205;-70
2023/12/28 03:53:52;;;;;;;10.20;6.30;;;;;;;;;;5063461;28;20201;-70
2023/12/28 03:56:22;;;;;;;12.40;6.43;;;;;;;;;;5056018;28;20217;-70
2023/12/28 03:58:48;;;;;;;8.57;6.85;;;;;;;;;;5063677;28;20276;-70
2023/12/28 04:01:14;;;;;;;9.40;6.47;;;;;;;;;;5066294;28;20192;-70
2023/12/28 04:03:40;;;;;;;13.30;6.85;;;;;;;;;;5066925;28;20696;-70
2023/12/28 04:06:07;;;;;;;8.13;6.22;;;;;;;;;;5064552;28;20270;-70
2023/12/28 04:08:35;;;;;;;8.05;6.38;;;;;;;;;;5068910;28;20253;-70
2023/12/28 04:11:01;;;;;;;7.25;6.32;;;;;;;;;;5065397;28;20340;-70
2023/12/28 04:13:27;;;;;;;9.35;6.50;;;;;;;;;;5063262;28;20201;-70
2023/12/28 04:15:54;;;;;;;10.02;6.68;;;;;;;;;;5062934;28;20225;-70
2023/12/28 04:18:20;;;;;;;9.52;7.03;;;;;;;;;;5063182;28;20204;-70
2023/12/28 04:20:46;;;;;;;11.52;6.88;;;;;;;;;;5062819;28;20213;-70
2023/12/28 04:23:12;;;;;;;7.47;6.22;;;;;;;;;;5071217;28;20200;-70
2023/12/28 04:25:40;;;;;;;10.70;6.88;;;;;;;;;;5062920;28;20217;-70
2023/12/28 04:28:06;;;;;;;8.95;6.05;;;;;;;;;;5064610;28;20196;-70
2023/12/28 04:30:33;;;;;;;8.77;6.53;;;;;;;;;;5066276;28;20253;-70
2023/12/28 04:32:59;;;;;;;9.98;6.35;;;;;;;;;;5065683;28;20593;-70
2023/12/28 04:35:25;;;;;;;10.27;6.07;;;;;;;;;;5062594;28;20228;-70
2023/12/28 04:37:51;;;;;;;8.52;6.10;;;;;;;;;;5063038;28;20205;-70
2023/12/28 04:40:18;;;;;;;7.10;5.70;;;;;;;;;;5065551;28;20258;-70
2023/12/28 04:42:45;;;;;;;7.18;5.63;;;;;;;;;;5066252;28;20246;-70
2023/12/28 04:45:11;;;;;;;7.88;5.72;;;;;;;;;;5063732;28;20220;-70
2023/12/28 04:47:38;;;;;;;8.27;5.65;;;;;;;;;;5062616;28;20205;-70
2023/12/28 04:50:04;;;;;;;6.55;5.93;;;;;;;;;;5063242;28;20255;-70
2023/12/28 04:52:30;;;;;;;6.90;6.20;;;;;;;;;;5066256;28;20250;-70
2023/12/28 04:54:57;;;;;;;8.55;5.80;;;;;;;;;;5065782;28;20224;-70
2023/12/28 04:57:24;;;;;;;7.88;5.90;;;;;;;;;;5065971;28;20619;-70
2023/12/28 04:59:52;;;;;;;8.65;6.03;;;;;;;;;;5065601;28;20216;-70
2023/12/28 05:02:18;;;;;;;7.45;6.20;;;;;;;;;;5062902;28;20210;-70
2023/12/28 05:04:44;;;;;;;8.35;6.50;;;;;;;;;;5062128;28;20205;-70
2023/12/28 05:07:11;;;;;;;8.77;6.43;;;;;;;;;;5064686;28;20562;-70
2023/12/28 05:09:37;;;;;;;7.22;5.70;;;;;;;;;;5068410;28;20250;-70
2023/12/28 05:12:04;;;;;;;7.53;6.03;;;;;;;;;;5066381;28;20238;-70
2023/12/28 05:14:30;;;;;;;7.70;5.63;;;;;;;;;;5065257;28;20669;-70
2023/12/28 05:16:57;;;;;;;8.15;5.57;;;;;;;;;;5065508;28;20224;-70
2023/12/28 05:19:24;;;;;;;7.93;6.07;;;;;;;;;;5062302;28;20681;-70
2023/12/28 05:21:50;;;;;;;8.23;6.28;;;;;;;;;;5061796;28;20615;-70
2023/12/28 05:24:16;;;;;;;10.10;6.30;;;;;;;;;;5063824;28;20558;-70
2023/12/28 05:26:42;;;;;;;8.18;5.97;;;;;;;;;;5065127;28;20720;-70
2023/12/28 05:29:09;;;;;;;7.70;6.07;;;;;;;;;;5063990;28;20201;-70
2023/12/28 05:31:35;;;;;;;7.82;5.32;;;;;;;;;;5061766;28;20197;-70
2023/12/28 05:34:03;;;;;;;5.68;5.07;;;;;;;;;;5069706;28;20204;-70
2023/12/28 05:36:29;;;;;;;8.38;5.55;;;;;;;;;;5061926;28;20313;-70
2023/12/28 05:38:55;;;;;;;7.13;5.57;;;;;;;;;;5061799;28;20205;-70
2023/12/28 05:41:22;;;;;;;9.10;6.07;;;;;;;;;;5063961;28;20221;-70
2023/12/28 05:43:48;;;;;;;8.27;6.00;;;;;;;;;;5064791;28;20204;-70
2023/12/28 05:46:14;;;;;;;7.85;6.47;;;;;;;;;;5062940;28;20228;-70
2023/12/28 05:48:40;;;;;;;8.82;6.72;;;;;;;;;;5061654;28;20235;-70
2023/12/28 05:51:08;;;;;;;7.78;5.93;;;;;;;;;;5061906;28;20189;-70
2023/12/28 05:53:34;;;;;;;9.75;6.38;;;;;;;;;;5064825;28;20253;-70
2023/12/28 05:56:03;;;;;;;8.35;6.40;;;;;;;;;;5064479;28;20227;-70
2023/12/28 05:58:29;;;;;;;8.70;6.47;;;;;;;;;;5061230;28;20295;-70
2023/12/28 06:00:55;;;;;;;8.45;5.85;;;;;;;;;;5060991;28;20255;-70
2023/12/28 06:03:21;;;;;;;9.10;6.22;;;;;;;;;;5063673;28;20251;-70
2023/12/28 06:05:48;;;;;;;10.63;6.15;;;;;;;;;;5064401;28;20243;-70
2023/12/28 06:08:15;;;;;;;8.50;6.10;;;;;;;;;;5062544;28;20197;-70
2023/12/28 06:10:41;;;;;;;9.85;6.68;;;;;;;;;;5060850;28;20243;-70
2023/12/28 06:13:08;;;;;;;9.18;7.05;;;;;;;;;;5060900;28;20270;-70
2023/12/28 06:15:34;;;;;;;12.60;7.15;;;;;;;;;;5064014;28;20640;-71
2023/12/28 06:18:01;;;;;;;14.70;8.88;;;;;;;;;;5063541;28;20734;-71
2023/12/28 06:20:28;;;;;;;8.90;7.50;;;;;;;;;;5059284;28;20221;-71
2023/12/28 06:22:54;;;;;;;13.10;7.47;;;;;;;;;;5059090;28;20735;-71
2023/12/28 06:25:22;;;;;;;9.55;6.78;;;;;;;;;;5060702;28;20279;-71
2023/12/28 06:27:48;;;;;;;8.23;6.30;;;;;;;;;;5062336;28;20730;-71
2023/12/28 06:30:14;;;;;;;12.52;6.70;;;;;;;;;;5061113;28;20673;-71
2023/12/28 06:32:41;;;;;;;10.50;6.45;;;;;;;;;;5059377;28;20193;-71
2023/12/28 06:35:07;;;;;;;9.25;5.55;;;;;;;;;;5068715;28;20554;-71
2023/12/28 06:37:33;;;;;;;10.85;5.93;;;;;;;;;;5060589;28;20205;-71
2023/12/28 06:39:59;;;;;;;8.15;5.70;;;;;;;;;;5060349;28;20217;-71
2023/12/28 06:42:27;;;;;;;13.13;5.93;;;;;;;;;;5062612;28;20201;-71
2023/12/28 06:44:53;;;;;;;11.07;5.50;;;;;;;;;;5063835;28;20209;-71
2023/12/28 06:47:19;;;;;;;9.70;5.72;;;;;;;;;;5062271;28;20258;-71
2023/12/28 06:49:46;;;;;;;7.13;5.90;;;;;;;;;;5060377;28;20197;-71
2023/12/28 06:52:12;;;;;;;8.85;6.10;;;;;;;;;;5060743;28;20225;-71
2023/12/28 06:54:38;;;;;;;8.05;5.93;;;;;;;;;;5063431;28;20196;-71
2023/12/28 06:57:05;;;;;;;9.88;6.03;;;;;;;;;;5063466;28;20192;-65
2023/12/28 06:59:32;;;;;;;8.57;6.18;;;;;;;;;;5060467;28;20198;-65
2023/12/28 07:01:59;;;;;;;15.45;6.38;;;;;;;;;;5066767;28;20628;-64
2023/12/28 07:04:29;;;;;;;11.10;6.97;;;;;;;;;;5061062;28;20689;-64
2023/12/28 07:06:55;;;;;;;11.07;6.68;;;;;;;;;;5060055;28;20308;-64
2023/12/28 07:09:21;;;;;;;15.60;7.32;;;;;;;;;;5061299;28;20289;-64
2023/12/28 07:11:48;;;;;;;7.35;6.10;;;;;;;;;;5063568;28;20207;-64
2023/12/28 07:14:14;;;;;;;7.75;6.10;;;;;;;;;;5062901;28;20204;-64
2023/12/28 07:16:41;;;;;;;10.70;6.50;;;;;;;;;;5055867;28;20217;-65
2023/12/28 07:19:08;;;;;;;10.00;5.82;;;;;;;;;;5064344;28;20201;-64
2023/12/28 07:21:34;;;;;;;6.78;5.68;;;;;;;;;;5060903;28;20259;-64
2023/12/28 07:24:00;;;;;;;10.52;6.47;;;;;;;;;;5060057;28;20247;-64
2023/12/28 07:26:26;;;;;;;6.05;5.15;;;;;;;;;;5061555;28;20300;-64
2023/12/28 07:28:54;;;;;;;8.98;5.45;;;;;;;;;;5063501;28;20204;-64
2023/12/28 07:31:24;;;;;;;7.68;6.07;;;;;;;;;;5061966;28;20691;-64
2023/12/28 07:33:51;;;;;;;9.80;5.80;;;;;;;;;;5059753;28;20207;-64
2023/12/28 07:36:18;;;;;;;10.38;6.13;;;;;;;;;;5067911;28;20216;-64
2023/12/28 07:38:44;;;;;;;17.95;8.48;;;;;;;;;;5059681;28;20292;-64
2023/12/28 07:41:11;;;;;;;11.40;6.18;;;;;;;;;;5059640;28;20220;-64
2023/12/28 07:43:37;;;;;;;13.65;7.70;;;;;;;;;;5062894;28;20200;-64
2023/12/28 07:46:03;;;;;;;12.60;6.97;;;;;;;;;;5062951;28;20216;-64
2023/12/28 07:48:30;;;;;;;11.23;6.78;;;;;;;;;;5060978;28;20204;-64
2023/12/28 07:50:58;;;;;;;11.85;7.35;;;;;;;;;;5059491;28;20737;-64
2023/12/28 07:53:24;;;;;;;9.25;6.20;;;;;;;;;;5060814;28;20624;-64
2023/12/28 07:55:51;;;;;;;10.80;5.97;;;;;;;;;;5062665;28;20638;-64
2023/12/28 07:58:17;;;;;;;7.82;5.55;;;;;;;;;;5062775;28;20197;-64
2023/12/28 08:00:43;;;;;;;9.30;6.13;;;;;;;;;;5059433;28;20278;-64
2023/12/28 08:03:11;;;;;;;9.73;6.78;;;;;;;;;;5059516;28;20743;-64
2023/12/28 08:05:38;;;;;;;10.77;6.63;;;;;;;;;;5062205;28;20226;-64
2023/12/28 08:08:06;;;;;;;11.52;7.20;;;;;;;;;;5062935;28;20246;-64
2023/12/28 08:10:32;;;;;;;9.80;6.75;;;;;;;;;;5060557;28;20196;-64
2023/12/28 08:12:58;;;;;;;12.10;7.03;;;;;;;;;;5059551;28;20197;-64
2023/12/28 08:15:24;;;;;;;11.20;6.72;;;;;;;;;;5067461;28;20224;-64
2023/12/28 08:17:51;;;;;;;11.80;7.25;;;;;;;;;;5059406;28;20577;-64
2023/12/28 08:20:18;;;;;;;10.63;6.93;;;;;;;;;;5059075;28;20613;-64
2023/12/28 08:22:44;;;;;;;11.93;7.57;;;;;;;;;;5059293;28;20615;-64
2023/12/28 08:25:11;;;;;;;9.68;6.65;;;;;;;;;;5059076;28;20705;-64
2023/12/28 08:27:38;;;;;;;9.70;6.85;;;;;;;;;;5067568;28;20254;-64
2023/12/28 08:30:04;;;;;;;11.77;7.57;;;;;;;;;;5059252;28;20657;-64
2023/12/28 08:32:31;;;;;;;13.52;6.78;;;;;;;;;;5064651;28;20201;-64
2023/12/28 08:34:57;;;;;;;12.85;7.10;;;;;;;;;;5066209;28;20312;-64
2023/12/28 08:37:23;;;;;;;11.90;6.65;;;;;;;;;;5065621;28;20251;-64
2023/12/28 08:39:50;;;;;;;11.88;7.72;;;;;;;;;;5062798;28;20210;-64
2023/12/28 08:42:17;;;;;;;20.02;8.00;;;;;;;;;;5062926;28;20283;-64
2023/12/28 08:44:43;;;;;;;14.40;7.78;;;;;;;;;;5065973;28;20197;-64
2023/12/28 08:47:10;;;;;;;10.40;6.93;;;;;;;;;;5066227;28;20201;-64
2023/12/28 08:49:36;;;;;;;9.18;6.35;;;;;;;;;;5063669;28;20200;-64
2023/12/28 08:52:02;;;;;;;9.23;6.75;;;;;;;;;;5062851;28;20218;-64
2023/12/28 08:54:29;;;;;;;10.50;6.57;;;;;;;;;;5063425;28;20216;-64
2023/12/28 08:56:55;;;;;;;13.15;6.75;;;;;;;;;;5066002;28;20261;-64
2023/12/28 08:59:21;;;;;;;8.55;6.38;;;;;;;;;;5065864;28;20201;-64
2023/12/28 09:01:48;;;;;;;9.43;6.63;;;;;;;;;;5062245;28;20217;-64
2023/12/28 09:04:14;;;;;;;9.60;7.07;;;;;;;;;;5062342;28;20201;-64
2023/12/28 09:06:41;;;;;;;11.50;6.65;;;;;;;;;;5065157;28;20232;-64
2023/12/28 09:09:07;;;;;;;13.50;6.85;;;;;;;;;;5065807;28;20247;-64
2023/12/28 09:11:33;;;;;;;10.45;7.95;;;;;;;;;;5063884;28;20212;-64
2023/12/28 09:13:59;;;;;;;9.30;6.82;;;;;;;;;;5067274;28;20196;-64
2023/12/28 09:16:28;;;;;;;13.43;8.23;;;;;;;;;;5065007;28;20224;-64
2023/12/28 09:18:54;;;;;;;10.38;8.80;;;;;;;;;;5062184;28;20193;-64
2023/12/28 09:21:20;;;;;;;8.82;7.63;;;;;;;;;;5062087;28;20216;-64
2023/12/28 09:23:47;;;;;;;8.57;6.30;;;;;;;;;;5065282;28;20283;-64
2023/12/28 09:26:13;;;;;;;13.77;7.00;;;;;;;;;;5065458;28;20232;-64
2023/12/28 09:28:40;;;;;;;7.68;5.72;;;;;;;;;;5063305;28;20207;-64
2023/12/28 09:31:07;;;;;;;6.82;5.38;;;;;;;;;;5067937;28;20197;-64
2023/12/28 09:33:34;;;;;;;8.38;5.80;;;;;;;;;;5063975;28;20197;-64
2023/12/28 09:36:00;;;;;;;8.65;5.93;;;;;;;;;;5061754;28;20221;-64
2023/12/28 09:38:27;;;;;;;9.80;6.07;;;;;;;;;;5062004;28;20205;-64
2023/12/28 09:40:55;;;;;;;8.75;5.45;;;;;;;;;;5065238;28;20215;-64
2023/12/28 09:43:22;;;;;;;9.90;6.35;;;;;;;;;;5064222;28;20258;-64
2023/12/28 09:45:49;;;;;;;9.20;5.90;;;;;;;;;;5061591;28;20220;-64
2023/12/28 09:48:16;;;;;;;12.32;6.03;;;;;;;;;;5061569;28;20201;-64
2023/12/28 09:50:44;;;;;;;8.32;6.32;;;;;;;;;;5063881;28;20208;-64
2023/12/28 09:53:10;;;;;;;10.02;6.60;;;;;;;;;;5064980;28;20196;-64
2023/12/28 09:55:37;;;;;;;9.43;7.00;;;;;;;;;;5062905;28;20231;-64
2023/12/28 09:58:05;;;;;;;9.32;6.78;;;;;;;;;;5061573;28;20284;-64
2023/12/28 10:00:31;;;;;;;8.77;6.95;;;;;;;;;;5061605;28;20284;-64
2023/12/28 10:02:58;;;;;;;11.38;7.10;;;;;;;;;;5063426;28;20220;-62
2023/12/28 10:05:24;;;;;;;11.30;6.82;;;;;;;;;;5066043;28;20232;-63
2023/12/28 10:07:51;;;;;;;10.30;7.05;;;;;;;;;;5055691;28;20271;-63
2023/12/28 10:10:19;;;;;;;9.23;6.78;;;;;;;;;;5050801;28;20209;-63
2023/12/28 10:12:46;;;;;;;11.68;6.18;;;;;;;;;;5058003;28;20205;-63
2023/12/28 10:15:13;;;;;;;13.18;8.52;;;;;;;;;;5058345;28;20228;-63
2023/12/28 10:17:39;;;;;;;11.93;8.23;;;;;;;;;;5057166;28;20212;-63
2023/12/28 10:20:08;;;;;;;10.57;7.55;;;;;;;;;;5055218;28;20243;-64
2023/12/28 10:22:35;;;;;;;15.43;8.70;;;;;;;;;;5050051;28;20291;-63
2023/12/28 10:25:03;;;;;;;15.10;7.95;;;;;;;;;;5058803;28;20225;-63
2023/12/28 10:27:29;;;;;;;14.93;8.88;;;;;;;;;;5058410;28;20215;-64
2023/12/28 10:29:56;;;;;;;12.85;8.43;;;;;;;;;;5054146;28;20209;-63
2023/12/28 10:32:24;;;;;;;10.82;7.15;;;;;;;;;;5057769;28;20201;-62
2023/12/28 10:34:50;;;;;;;10.38;7.30;;;;;;;;;;5058741;28;20209;-63
2023/12/28 10:37:18;;;;;;;12.35;7.68;;;;;;;;;;5066757;28;20551;-63
2023/12/28 10:39:46;;;;;;;10.70;7.43;;;;;;;;;;5054392;28;20205;-63
2023/12/28 10:42:14;;;;;;;12.15;8.00;;;;;;;;;;5061296;28;20208;-62
2023/12/28 10:44:43;;;;;;;10.90;7.72;;;;;;;;;;5059563;28;20661;-63
2023/12/28 10:47:11;;;;;;;10.73;6.95;;;;;;;;;;5058035;28;20283;-63
2023/12/28 10:49:38;;;;;;;11.95;6.82;;;;;;;;;;5058777;28;20223;-63
2023/12/28 10:52:06;;;;;;;8.52;6.63;;;;;;;;;;5061218;28;20199;-63
2023/12/28 10:54:37;;;;;;;8.52;6.18;;;;;;;;;;5060852;28;20207;-63
2023/12/28 10:57:06;;;;;;;7.72;6.47;;;;;;;;;;5060555;28;20250;-63
2023/12/28 10:59:40;;;;;;;10.82;7.38;;;;;;;;;;5060526;28;20869;-63
2023/12/28 11:02:07;;;;;;;12.02;6.78;;;;;;;;;;5063702;28;20216;-63
2023/12/28 11:04:38;;;;;;;9.32;7.60;;;;;;;;;;5063124;28;20207;-63
2023/12/28 11:07:06;;;;;;;15.27;8.10;;;;;;;;;;5060075;28;20250;-63
2023/12/28 11:09:32;;;;;;;18.35;9.48;;;;;;;;;;5059988;28;20205;-63
2023/12/28 11:11:59;;;;;;;14.32;9.27;;;;;;;;;;5060402;28;20247;-62
2023/12/28 11:14:27;;;;;;;13.85;10.13;;;;;;;;;;5060025;28;20236;-63
2023/12/28 11:16:54;;;;;;;18.67;10.43;;;;;;;;;;5062534;28;20232;-63
2023/12/28 11:19:21;;;;;;;23.13;12.48;;;;;;;;;;5063508;28;20200;-63
2023/12/28 11:21:48;;;;;;;26.67;16.00;;;;;;;;;;5061251;28;20696;-63
2023/12/28 11:24:14;;;;;;;28.38;14.57;;;;;;;;;;5059966;28;20231;-63
2023/12/28 11:26:41;;;;;;;33.20;15.77;;;;;;;;;;5060791;28;20225;-63
2023/12/28 11:29:07;;;;;;;34.20;15.77;;;;;;;;;;5063282;28;20665;-63
2023/12/28 11:31:34;;;;;;;23.10;12.40;;;;;;;;;;5063480;28;20203;-63
2023/12/28 11:34:02;;;;;;;33.50;13.77;;;;;;;;;;5059690;28;20313;-63
2023/12/28 11:36:33;;;;;;;13.80;8.82;;;;;;;;;;5059591;28;20224;-63
2023/12/28 11:39:02;;;;;;;20.92;10.95;;;;;;;;;;5063421;28;20201;-63
2023/12/28 11:41:28;;;;;;;17.42;9.77;;;;;;;;;;5063113;28;20598;-63
2023/12/28 11:43:55;;;;;;;12.63;7.97;;;;;;;;;;5061131;28;20735;-63
2023/12/28 11:46:21;;;;;;;10.48;7.53;;;;;;;;;;5059682;28;20254;-63
2023/12/28 11:48:47;;;;;;;8.20;6.95;;;;;;;;;;5061026;28;20209;-63
2023/12/28 11:51:15;;;;;;;7.90;6.80;;;;;;;;;;5063252;28;20201;-63
2023/12/28 11:53:42;;;;;;;11.82;7.68;;;;;;;;;;5062613;28;20254;-63
2023/12/28 11:56:09;;;;;;;10.65;6.60;;;;;;;;;;5059460;28;20262;-63
2023/12/28 11:58:35;;;;;;;9.90;7.40;;;;;;;;;;5059617;28;20667;-63
2023/12/28 12:01:02;;;;;;;13.63;7.20;;;;;;;;;;5062825;28;20196;-63
2023/12/28 12:03:29;;;;;;;11.50;7.82;;;;;;;;;;5062786;28;20220;-63
2023/12/28 12:05:57;;;;;;;12.88;7.47;;;;;;;;;;5061793;28;20643;-63
2023/12/28 12:08:25;;;;;;;13.85;7.97;;;;;;;;;;5063570;28;20745;-63
2023/12/28 12:11:00;;;;;;;11.82;8.07;;;;;;;;;;5065166;28;20254;-63
2023/12/28 12:13:26;;;;;;;15.23;8.35;;;;;;;;;;5066835;28;20192;-63
2023/12/28 12:15:53;;;;;;;13.18;7.90;;;;;;;;;;5064482;28;20303;-63
2023/12/28 12:18:19;;;;;;;12.48;7.32;;;;;;;;;;5063474;28;20201;-63
2023/12/28 12:20:46;;;;;;;11.02;7.57;;;;;;;;;;5063872;28;20809;-63
2023/12/28 12:23:12;;;;;;;11.65;7.35;;;;;;;;;;5066636;28;20266;-63
2023/12/28 12:25:41;;;;;;;11.25;8.00;;;;;;;;;;5066406;28;20250;-63
2023/12/28 12:28:07;;;;;;;16.63;7.60;;;;;;;;;;5063638;28;20197;-63
2023/12/28 12:30:33;;;;;;;11.38;7.55;;;;;;;;;;5070038;28;20574;-63
2023/12/28 12:32:59;;;;;;;12.35;6.95;;;;;;;;;;5064119;28;20204;-63
2023/12/28 12:35:26;;;;;;;13.93;7.68;;;;;;;;;;5069067;28;20228;-62
2023/12/28 12:37:53;;;;;;;13.68;8.43;;;;;;;;;;5064727;28;20669;-63
2023/12/28 12:40:21;;;;;;;15.55;8.48;;;;;;;;;;5062526;28;20574;-63
2023/12/28 12:42:55;;;;;;;12.18;8.10;;;;;;;;;;5070408;28;20220;-62
2023/12/28 12:45:23;;;;;;;12.85;8.90;;;;;;;;;;5062019;28;20775;-64
2023/12/28 12:47:50;;;;;;;18.45;12.18;;;;;;;;;;5063250;28;20223;-61
2023/12/28 12:50:16;;;;;;;19.77;11.30;;;;;;;;;;5065687;28;20207;-64
2023/12/28 12:52:45;;;;;;;18.98;10.45;;;;;;;;;;5065462;28;20203;-64
2023/12/28 12:55:11;;;;;;;12.48;8.75;;;;;;;;;;5059970;28;20258;-63
2023/12/28 12:57:38;;;;;;;14.98;8.25;;;;;;;;;;5061794;28;20216;-63
2023/12/28 13:00:08;;;;;;;14.07;9.50;;;;;;;;;;5061034;28;20212;-64
2023/12/28 13:02:36;;;;;;;18.33;8.32;;;;;;;;;;5062718;28;20252;-64
2023/12/28 13:05:03;;;;;;;13.57;9.23;;;;;;;;;;5057238;28;20278;-63
2023/12/28 13:07:30;;;;;;;15.55;9.02;;;;;;;;;;5061453;28;20298;-63
2023/12/28 13:09:56;;;;;;;14.50;9.63;;;;;;;;;;5059108;28;20212;-64
2023/12/28 13:12:24;;;;;;;17.02;8.85;;;;;;;;;;5059136;28;20200;-62
2023/12/28 13:14:50;;;;;;;17.70;9.25;;;;;;;;;;5064710;28;20288;-63
2023/12/28 13:17:17;;;;;;;15.55;9.25;;;;;;;;;;5059273;28;20216;-63
2023/12/28 13:19:44;;;;;;;13.07;9.13;;;;;;;;;;5060685;28;20695;-63
2023/12/28 13:22:10;;;;;;;15.32;9.68;;;;;;;;;;5063461;28;20566;-62
2023/12/28 13:24:36;;;;;;;13.98;9.75;;;;;;;;;;5063332;28;20197;-62
2023/12/28 13:27:03;;;;;;;15.35;9.30;;;;;;;;;;5061545;28;20258;-62
2023/12/28 13:29:29;;;;;;;15.27;8.80;;;;;;;;;;5060467;28;20250;-62
2023/12/28 13:31:56;;;;;;;13.95;9.40;;;;;;;;;;5062883;28;20684;-62
2023/12/28 13:34:23;;;;;;;14.90;9.60;;;;;;;;;;5065216;28;20654;-62
2023/12/28 13:36:49;;;;;;;13.07;9.65;;;;;;;;;;5064778;28;20220;-62
2023/12/28 13:39:17;;;;;;;15.18;9.50;;;;;;;;;;5061766;28;20292;-62
2023/12/28 13:41:43;;;;;;;13.43;9.77;;;;;;;;;;5062040;28;20288;-62
2023/12/28 13:44:12;;;;;;;11.82;9.73;;;;;;;;;;5064704;28;20200;-62
2023/12/28 13:46:38;;;;;;;12.77;9.75;;;;;;;;;;5065075;28;20262;-62
2023/12/28 13:49:06;;;;;;;12.55;9.63;;;;;;;;;;5062660;28;20200;-63
2023/12/28 13:51:34;;;;;;;13.70;9.68;;;;;;;;;;5061565;28;20201;-63
2023/12/28 13:54:00;;;;;;;13.07;10.02;;;;;;;;;;5062858;28;20197;-63
2023/12/28 13:56:26;;;;;;;12.95;10.15;;;;;;;;;;5065062;28;20224;-63
2023/12/28 13:58:53;;;;;;;17.35;11.60;;;;;;;;;;5064406;28;20211;-63
2023/12/28 14:01:19;;;;;;;13.63;10.60;;;;;;;;;;5061439;28;20201;-62
2023/12/28 14:03:48;;;;;;;14.77;10.60;;;;;;;;;;5061323;28;20225;-63
2023/12/28 14:06:14;;;;;;;13.40;9.52;;;;;;;;;;5064408;28;20220;-62
2023/12/28 14:08:42;;;;;;;17.90;12.07;;;;;;;;;;5064690;28;20230;-63
2023/12/28 14:11:09;;;;;;;17.63;11.57;;;;;;;;;;5061832;28;20212;-63
2023/12/28 14:13:36;;;;;;;16.35;14.18;;;;;;;;;;5061293;28;20197;-63
2023/12/28 14:16:03;;;;;;;20.15;14.13;;;;;;;;;;5062529;28;20217;-63
2023/12/28 14:18:29;;;;;;;19.85;13.13;;;;;;;;;;5065072;28;20201;-62
2023/12/28 14:20:55;;;;;;;17.35;12.90;;;;;;;;;;5064036;28;20262;-62
2023/12/28 14:23:22;;;;;;;15.15;11.73;;;;;;;;;;5061221;28;20260;-62
2023/12/28 14:25:53;;;;;;;12.55;10.60;;;;;;;;;;5060804;28;20263;-62
2023/12/28 14:28:19;;;;;;;11.93;9.60;;;;;;;;;;5060633;28;20288;-62
2023/12/28 14:30:46;;;;;;;12.25;7.85;;;;;;;;;;5060727;28;20197;-62